Time;durP1;ratioP1;P1;durP2;ratioP2;P2;SDS_P1;SDS_P2;PMS_P1;PMS_P2;Temp;Humidity;BMP_temperature;BMP_pressure;BME280_temperature;BME280_humidity;BME280_pressure;Samples;Min_cycle;Max_cycle;Signal;HPM_P1;HPM_P2
2023/07/24 00:01:06;;;;;;;6.5;4.9;;;;;;;17.84;87.5791;933.5744;;;;
2023/07/24 00:03:34;;;;;;;7.6;4.9;;;;;;;18.13;86.56641;933.5912;;;;
2023/07/24 00:06:00;;;;;;;7.2;4.9;;;;;;;18.14;85.90723;933.4497;;;;
2023/07/24 00:08:25;;;;;;;7.1;4.7;;;;;;;18.14;86.04492;933.5555;;;;
2023/07/24 00:10:50;;;;;;;7.8;5.2;;;;;;;18.07;86.52051;933.5806;;;;
2023/07/24 00:13:18;;;;;;;8;4.9;;;;;;;18.09;85.9082;933.4487;;;;
2023/07/24 00:15:45;;;;;;;8.2;5.1;;;;;;;17.92;87.16406;933.4698;;;;
2023/07/24 00:18:10;;;;;;;7;4.8;;;;;;;18.08;86.49902;933.4288;;;;
2023/07/24 00:20:39;;;;;;;8.1;5.3;;;;;;;18.13;85.50879;933.368;;;;
2023/07/24 00:23:04;;;;;;;6.7;4.7;;;;;;;18.03;86.06055;933.3455;;;;
2023/07/24 00:25:32;;;;;;;8.2;5.1;;;;;;;17.85;86.66406;933.28;;;;
2023/07/24 00:27:57;;;;;;;8.4;5;;;;;;;17.79;87.17383;933.3088;;;;
2023/07/24 00:30:25;;;;;;;10.4;5.1;;;;;;;17.81;87.30469;933.2607;;;;
2023/07/24 00:32:50;;;;;;;7.9;4.8;;;;;;;17.83;87.36719;933.2339;;;;
2023/07/24 00:35:20;;;;;;;7.9;4.8;;;;;;;17.83;87.2627;933.1905;;;;
2023/07/24 00:37:45;;;;;;;7.3;5;;;;;;;17.79;87.55664;933.3135;;;;
2023/07/24 00:40:10;;;;;;;6.8;4.5;;;;;;;17.82;87.45801;933.267;;;;
2023/07/24 00:42:41;;;;;;;8.2;5;;;;;;;17.73;87.92969;933.1644;;;;
2023/07/24 00:45:07;;;;;;;8.4;5.2;;;;;;;17.7;87.9082;933.1155;;;;
2023/07/24 00:47:32;;;;;;;7.9;5.2;;;;;;;17.66;87.83398;933.1089;;;;
2023/07/24 00:50:00;;;;;;;10.9;5.2;;;;;;;17.67;88.14648;933.1635;;;;
2023/07/24 00:52:25;;;;;;;9.9;5.4;;;;;;;17.62;88.2168;933.1476;;;;
2023/07/24 00:54:54;;;;;;;8.6;5.1;;;;;;;17.55;88.73828;933.1019;;;;
2023/07/24 00:57:20;;;;;;;7.7;5.3;;;;;;;17.58;88.7666;933.0656;;;;
2023/07/24 00:59:48;;;;;;;9.7;5.6;;;;;;;17.49;89.16602;933.1372;;;;
2023/07/24 01:02:13;;;;;;;7.7;5;;;;;;;17.62;88.32324;933.0341;;;;
2023/07/24 01:04:40;;;;;;;8.8;5.2;;;;;;;17.6;88.16699;932.9878;;;;
2023/07/24 01:07:05;;;;;;;10.7;5.8;;;;;;;17.47;88.72168;932.9453;;;;
2023/07/24 01:09:34;;;;;;;8.7;5.5;;;;;;;17.45;88.91504;932.9578;;;;
2023/07/24 01:11:59;;;;;;;8.5;5.2;;;;;;;17.55;88.12305;932.9295;;;;
2023/07/24 01:14:24;;;;;;;9.8;6;;;;;;;17.51;88.35938;932.8918;;;;
2023/07/24 01:16:49;;;;;;;8.5;5.2;;;;;;;17.51;88.47559;932.8492;;;;
2023/07/24 01:19:14;;;;;;;8.9;5.4;;;;;;;17.75;87.35059;932.8041;;;;
2023/07/24 01:21:40;;;;;;;7.9;5.5;;;;;;;17.72;86.43945;932.7034;;;;
2023/07/24 01:24:06;;;;;;;10.3;6.5;;;;;;;17.85;85.58398;932.6678;;;;
2023/07/24 01:26:31;;;;;;;8.6;5.5;;;;;;;17.85;85.57031;932.5946;;;;
2023/07/24 01:29:00;;;;;;;8.8;5.3;;;;;;;17.85;86.04688;932.651;;;;
2023/07/24 01:31:25;;;;;;;9.7;5.3;;;;;;;17.79;86.52344;932.6667;;;;
2023/07/24 01:33:54;;;;;;;7.6;5.4;;;;;;;17.71;86.92383;932.62;;;;
2023/07/24 01:36:19;;;;;;;10.6;6;;;;;;;17.43;88.34375;932.5745;;;;
2023/07/24 01:38:49;;;;;;;9.8;6.1;;;;;;;17.39;88.69434;932.472;;;;
2023/07/24 01:41:14;;;;;;;9.5;5.4;;;;;;;17.36;88.82715;932.5318;;;;
2023/07/24 01:43:39;;;;;;;8.5;5.6;;;;;;;17.3;89.17383;932.4608;;;;
2023/07/24 01:46:09;;;;;;;9.3;5.8;;;;;;;17.34;88.97266;932.4437;;;;
2023/07/24 01:48:34;;;;;;;9.9;5.6;;;;;;;17.37;88.84082;932.5466;;;;
2023/07/24 01:50:59;;;;;;;11.1;5.9;;;;;;;17.46;88.05859;932.4812;;;;
2023/07/24 01:53:25;;;;;;;9.7;6;;;;;;;17.28;88.76465;932.4895;;;;
2023/07/24 01:55:51;;;;;;;10.9;6.5;;;;;;;17.3;88.50391;932.4921;;;;
2023/07/24 01:58:16;;;;;;;10.2;6;;;;;;;17.31;88.2373;932.5033;;;;
2023/07/24 02:00:41;;;;;;;9.6;6;;;;;;;17.44;87.95117;932.566;;;;
2023/07/24 02:03:12;;;;;;;9.1;5.9;;;;;;;17.42;87.34375;932.4886;;;;
2023/07/24 02:05:38;;;;;;;10.1;6.3;;;;;;;17.56;86.83887;932.4856;;;;
2023/07/24 02:08:08;;;;;;;9.7;6.2;;;;;;;17.47;87.41113;932.6242;;;;
2023/07/24 02:10:33;;;;;;;10.2;6.5;;;;;;;17.42;87.18164;932.639;;;;
2023/07/24 02:12:59;;;;;;;11.1;6.4;;;;;;;17.29;87.76758;932.6294;;;;
2023/07/24 02:16:17;;;;;;;10.1;6.6;;;;;;;17.29;87.68848;932.6509;;;;
2023/07/24 02:18:45;;;;;;;11.8;6.6;;;;;;;17.18;88.23438;932.6389;;;;
2023/07/24 02:21:10;;;;;;;9.6;6.1;;;;;;;17.37;87.25195;932.5933;;;;
2023/07/24 02:23:36;;;;;;;10.6;6;;;;;;;17.47;86.91211;932.6305;;;;
2023/07/24 02:26:03;;;;;;;9.9;6.4;;;;;;;17.53;86.25;932.5928;;;;
2023/07/24 02:28:29;;;;;;;9.3;6.4;;;;;;;17.33;87.20996;932.5494;;;;
2023/07/24 02:31:00;;;;;;;10.9;6.6;;;;;;;17.22;88.11621;932.7573;;;;
2023/07/24 02:33:27;;;;;;;10.2;6.8;;;;;;;17.36;87.45898;932.6654;;;;
2023/07/24 02:35:52;;;;;;;10.9;6.9;;;;;;;17.39;87.11621;932.6517;;;;
2023/07/24 02:38:21;;;;;;;11.7;6.2;;;;;;;17.21;87.67188;932.7427;;;;
2023/07/24 02:40:46;;;;;;;11.7;7.1;;;;;;;17.17;87.6416;932.6522;;;;
2023/07/24 02:44:06;;;;;;;11.5;7.2;;;;;;;17.38;87.20703;932.6077;;;;
2023/07/24 02:46:16;;;;;;;10.5;6.8;;;;;;;17.27;86.87305;932.5492;;;;
2023/07/24 02:48:45;;;;;;;10.6;6.9;;;;;;;17.46;86.2373;932.597;;;;
2023/07/24 02:51:10;;;;;;;10.9;6.9;;;;;;;17.62;85.67578;932.5544;;;;
2023/07/24 02:53:36;;;;;;;10.3;6.9;;;;;;;;;;;;;
2023/07/24 02:56:02;;;;;;;10.2;6.4;;;;;;;;;;;;;
2023/07/24 02:58:27;;;;;;;10;6.4;;;;;;;;;;;;;
2023/07/24 03:00:52;;;;;;;11.6;7.1;;;;;;;;;;;;;
2023/07/24 03:03:20;;;;;;;11.7;7;;;;;;;;;;;;;
2023/07/24 03:05:45;;;;;;;13;7.1;;;;;;;;;;;;;
2023/07/24 03:08:10;;;;;;;12;7.4;;;;;;;;;;;;;
2023/07/24 03:10:35;;;;;;;11.9;7;;;;;;;;;;;;;
2023/07/24 03:13:01;;;;;;;12.3;7.3;;;;;;;;;;;;;
2023/07/24 03:15:26;;;;;;;11.4;7.2;;;;;;;;;;;;;
2023/07/24 03:17:53;;;;;;;10.4;6.7;;;;;;;;;;;;;
2023/07/24 03:20:18;;;;;;;14;7.6;;;;;;;;;;;;;
2023/07/24 03:22:45;;;;;;;12.8;7.8;;;;;;;;;;;;;
2023/07/24 03:25:10;;;;;;;12.2;7.7;;;;;;;;;;;;;
2023/07/24 03:27:36;;;;;;;12.1;7.3;;;;;;;;;;;;;
2023/07/24 03:30:02;;;;;;;11;7.2;;;;;;;;;;;;;
2023/07/24 03:32:30;;;;;;;11.2;7.5;;;;;;;;;;;;;
2023/07/24 03:34:55;;;;;;;10.8;7.1;;;;;;;;;;;;;
2023/07/24 03:37:20;;;;;;;12.1;7.5;;;;;;;;;;;;;
2023/07/24 03:39:45;;;;;;;11.9;6.4;;;;;;;;;;;;;
2023/07/24 03:42:12;;;;;;;13.9;7.6;;;;;;;;;;;;;
2023/07/24 03:44:38;;;;;;;14.2;8;;;;;;;;;;;;;
2023/07/24 03:47:03;;;;;;;10.8;7.6;;;;;;;;;;;;;
2023/07/24 03:49:28;;;;;;;12.3;7.8;;;;;;;;;;;;;
2023/07/24 03:51:54;;;;;;;12.9;7.4;;;;;;;;;;;;;
2023/07/24 03:54:19;;;;;;;12.3;7.4;;;;;;;;;;;;;
2023/07/24 03:56:44;;;;;;;12.2;8;;;;;;;;;;;;;
2023/07/24 03:59:11;;;;;;;12;7;;;;;;;;;;;;;
2023/07/24 04:02:34;;;;;;;14.3;8.2;;;;;;;17;86.76172;932.7597;;;;
2023/07/24 04:05:03;;;;;;;14.9;8.2;;;;;;;17.04;86.71094;932.7045;;;;
2023/07/24 04:07:28;;;;;;;14;8;;;;;;;17.31;85.4541;932.747;;;;
2023/07/24 04:13:49;;;;;;;11.9;7.5;;;;;;;17.19;86.10352;932.9372;;;;
2023/07/24 04:16:03;;;;;;;11.9;7.9;;;;;;;17.41;85.55566;932.7726;;;;
2023/07/24 04:18:29;;;;;;;12.9;7.6;;;;;;;;;;;;;
2023/07/24 04:20:54;;;;;;;12.5;7.4;;;;;;;;;;;;;
2023/07/24 04:23:20;;;;;;;12.9;8;;;;;;;;;;;;;
2023/07/24 04:25:45;;;;;;;13.3;7.7;;;;;;;;;;;;;
2023/07/24 04:28:13;;;;;;;12.9;7.5;;;;;;;;;;;;;
2023/07/24 04:30:38;;;;;;;13.1;7.8;;;;;;;;;;;;;
2023/07/24 04:33:03;;;;;;;11.5;7.8;;;;;;;;;;;;;
2023/07/24 04:35:28;;;;;;;13.5;8.3;;;;;;;;;;;;;
2023/07/24 04:37:56;;;;;;;14.3;7.9;;;;;;;;;;;;;
2023/07/24 04:40:20;;;;;;;11.8;7.3;;;;;;;;;;;;;
2023/07/24 04:42:45;;;;;;;12.7;8.2;;;;;;;;;;;;;
2023/07/24 04:45:10;;;;;;;12.3;7.7;;;;;;;;;;;;;
2023/07/24 04:47:39;;;;;;;13;7.9;;;;;;;;;;;;;
2023/07/24 04:50:04;;;;;;;12.2;7.9;;;;;;;;;;;;;
2023/07/24 04:52:31;;;;;;;13.1;7.9;;;;;;;;;;;;;
2023/07/24 04:54:56;;;;;;;14.2;8.1;;;;;;;;;;;;;
2023/07/24 04:57:22;;;;;;;12.8;7.6;;;;;;;;;;;;;
2023/07/24 04:59:47;;;;;;;13.9;7.9;;;;;;;;;;;;;
2023/07/24 05:02:14;;;;;;;13;8.1;;;;;;;;;;;;;
2023/07/24 05:04:39;;;;;;;13.5;7.7;;;;;;;;;;;;;
2023/07/24 05:07:05;;;;;;;11;7.6;;;;;;;;;;;;;
2023/07/24 05:09:30;;;;;;;12.8;7.2;;;;;;;;;;;;;
2023/07/24 05:11:56;;;;;;;12;7.7;;;;;;;;;;;;;
2023/07/24 05:14:21;;;;;;;14.2;7.9;;;;;;;;;;;;;
2023/07/24 05:16:48;;;;;;;15;8.1;;;;;;;;;;;;;
2023/07/24 05:19:13;;;;;;;11.7;7.4;;;;;;;;;;;;;
2023/07/24 05:21:38;;;;;;;11.6;7.5;;;;;;;;;;;;;
2023/07/24 05:24:03;;;;;;;12.2;7.6;;;;;;;;;;;;;
2023/07/24 05:26:29;;;;;;;15.9;7.9;;;;;;;;;;;;;
2023/07/24 05:28:54;;;;;;;12.3;7.9;;;;;;;;;;;;;
2023/07/24 05:31:21;;;;;;;13.5;7.7;;;;;;;;;;;;;
2023/07/24 05:33:46;;;;;;;11.9;7.3;;;;;;;;;;;;;
2023/07/24 05:36:12;;;;;;;13.4;8;;;;;;;;;;;;;
2023/07/24 05:38:37;;;;;;;13;7.6;;;;;;;;;;;;;
2023/07/24 05:41:03;;;;;;;12.9;7.9;;;;;;;;;;;;;
2023/07/24 05:43:28;;;;;;;12.1;7.1;;;;;;;;;;;;;
2023/07/24 05:45:55;;;;;;;12.3;7.1;;;;;;;;;;;;;
2023/07/24 05:48:20;;;;;;;11.9;7.6;;;;;;;;;;;;;
2023/07/24 05:50:45;;;;;;;14.6;7.6;;;;;;;;;;;;;
2023/07/24 05:53:12;;;;;;;11.1;6.8;;;;;;;;;;;;;
2023/07/24 05:55:41;;;;;;;11.2;7.4;;;;;;;;;;;;;
2023/07/24 05:58:10;;;;;;;12.1;7.5;;;;;;;;;;;;;
2023/07/24 06:00:36;;;;;;;11.3;7.8;;;;;;;;;;;;;
2023/07/24 06:03:00;;;;;;;14.3;7.8;;;;;;;;;;;;;
2023/07/24 06:05:29;;;;;;;11.8;7.8;;;;;;;;;;;;;
2023/07/24 06:07:54;;;;;;;12.7;7.3;;;;;;;;;;;;;
2023/07/24 06:10:20;;;;;;;13.5;8.1;;;;;;;;;;;;;
2023/07/24 06:12:45;;;;;;;12.9;7.7;;;;;;;;;;;;;
2023/07/24 06:15:10;;;;;;;12.4;7.7;;;;;;;;;;;;;
2023/07/24 06:17:36;;;;;;;12.5;7.5;;;;;;;;;;;;;
2023/07/24 06:20:01;;;;;;;13.4;7.7;;;;;;;;;;;;;
2023/07/24 06:22:26;;;;;;;11.5;7.4;;;;;;;;;;;;;
2023/07/24 06:24:53;;;;;;;11.4;7.3;;;;;;;;;;;;;
2023/07/24 06:27:19;;;;;;;10.8;7.4;;;;;;;;;;;;;
2023/07/24 06:29:46;;;;;;;12.6;7.9;;;;;;;;;;;;;
2023/07/24 06:32:11;;;;;;;13.2;8.2;;;;;;;;;;;;;
2023/07/24 06:34:36;;;;;;;11.9;7.3;;;;;;;;;;;;;
2023/07/24 06:37:01;;;;;;;11;7.7;;;;;;;;;;;;;
2023/07/24 06:39:28;;;;;;;12.8;8.1;;;;;;;;;;;;;
2023/07/24 06:41:52;;;;;;;13.4;7.7;;;;;;;;;;;;;
2023/07/24 06:44:18;;;;;;;12.4;7.9;;;;;;;;;;;;;
2023/07/24 06:46:43;;;;;;;12.7;7.8;;;;;;;;;;;;;
2023/07/24 06:49:11;;;;;;;14.8;8.1;;;;;;;;;;;;;
2023/07/24 06:51:35;;;;;;;14.6;8.5;;;;;;;;;;;;;
2023/07/24 06:54:02;;;;;;;13.4;7.9;;;;;;;;;;;;;
2023/07/24 06:56:26;;;;;;;14.2;8.2;;;;;;;;;;;;;
2023/07/24 06:58:53;;;;;;;15.6;8.8;;;;;;;;;;;;;
2023/07/24 07:01:18;;;;;;;12.3;8.3;;;;;;;;;;;;;
2023/07/24 07:03:44;;;;;;;14.6;8.5;;;;;;;;;;;;;
2023/07/24 07:06:10;;;;;;;13.9;8.2;;;;;;;;;;;;;
2023/07/24 07:08:35;;;;;;;14.1;8.2;;;;;;;;;;;;;
2023/07/24 07:11:01;;;;;;;14.3;8.3;;;;;;;;;;;;;
2023/07/24 07:13:27;;;;;;;12.8;8.5;;;;;;;;;;;;;
2023/07/24 07:15:52;;;;;;;14.4;8.6;;;;;;;;;;;;;
2023/07/24 07:18:19;;;;;;;14.5;7.8;;;;;;;;;;;;;
2023/07/24 07:20:44;;;;;;;16.3;8.4;;;;;;;;;;;;;
2023/07/24 07:23:09;;;;;;;13.9;8;;;;;;;;;;;;;
2023/07/24 07:25:34;;;;;;;14.7;8.3;;;;;;;;;;;;;
2023/07/24 07:28:02;;;;;;;12.8;8.6;;;;;;;;;;;;;
2023/07/24 07:30:28;;;;;;;13.3;8.6;;;;;;;;;;;;;
2023/07/24 07:32:54;;;;;;;13.9;8.7;;;;;;;;;;;;;
2023/07/24 07:35:19;;;;;;;13.6;8.6;;;;;;;;;;;;;
2023/07/24 07:37:45;;;;;;;12.8;8;;;;;;;;;;;;;
2023/07/24 07:40:10;;;;;;;12.6;8.1;;;;;;;;;;;;;
2023/07/24 07:42:37;;;;;;;14.3;8.4;;;;;;;;;;;;;
2023/07/24 07:45:03;;;;;;;13.3;7.8;;;;;;;;;;;;;
2023/07/24 07:47:28;;;;;;;14.5;8.2;;;;;;;;;;;;;
2023/07/24 07:49:53;;;;;;;12.8;8.3;;;;;;;;;;;;;
2023/07/24 07:52:20;;;;;;;12.2;7.8;;;;;;;;;;;;;
2023/07/24 07:54:44;;;;;;;11.8;7.9;;;;;;;;;;;;;
2023/07/24 07:57:09;;;;;;;12.5;7.4;;;;;;;;;;;;;
2023/07/24 07:59:35;;;;;;;12.6;7.8;;;;;;;;;;;;;
2023/07/24 08:02:00;;;;;;;12.2;7.8;;;;;;;;;;;;;
2023/07/24 08:04:26;;;;;;;13.3;7.7;;;;;;;;;;;;;
2023/07/24 08:06:51;;;;;;;11.7;7.4;;;;;;;;;;;;;
2023/07/24 08:09:17;;;;;;;12.3;7.6;;;;;;;;;;;;;
2023/07/24 08:11:42;;;;;;;11.1;7.1;;;;;;;;;;;;;
2023/07/24 08:14:09;;;;;;;11.8;7.4;;;;;;;;;;;;;
2023/07/24 08:16:34;;;;;;;10.8;6.4;;;;;;;;;;;;;
2023/07/24 08:19:02;;;;;;;9.4;5.6;;;;;;;;;;;;;
2023/07/24 08:21:27;;;;;;;8.4;5.6;;;;;;;;;;;;;
2023/07/24 08:23:52;;;;;;;11.3;6.2;;;;;;;;;;;;;
2023/07/24 08:26:17;;;;;;;9;5.7;;;;;;;;;;;;;
2023/07/24 08:28:43;;;;;;;8.1;5.4;;;;;;;;;;;;;
2023/07/24 08:31:07;;;;;;;9.1;5.5;;;;;;;;;;;;;
2023/07/24 08:33:34;;;;;;;9.5;5.7;;;;;;;;;;;;;
2023/07/24 08:36:01;;;;;;;9.1;5.4;;;;;;;;;;;;;
2023/07/24 08:38:26;;;;;;;9.3;5.5;;;;;;;;;;;;;
2023/07/24 08:40:51;;;;;;;8.6;5.5;;;;;;;;;;;;;
2023/07/24 08:43:17;;;;;;;8.9;5.7;;;;;;;;;;;;;
2023/07/24 08:45:43;;;;;;;9;5.4;;;;;;;;;;;;;
2023/07/24 08:48:08;;;;;;;9.6;5.8;;;;;;;;;;;;;
2023/07/24 08:50:36;;;;;;;8.3;5.7;;;;;;;;;;;;;
2023/07/24 08:53:01;;;;;;;8.6;5.8;;;;;;;;;;;;;
2023/07/24 08:55:39;;;;;;;8.1;5.4;;;;;;;;;;;;;
2023/07/24 08:58:05;;;;;;;9;5.3;;;;;;;;;;;;;
2023/07/24 09:00:29;;;;;;;9.5;5.6;;;;;;;;;;;;;
2023/07/24 09:02:56;;;;;;;7.8;5.1;;;;;;;;;;;;;
2023/07/24 09:05:21;;;;;;;8;5.3;;;;;;;;;;;;;
2023/07/24 09:07:46;;;;;;;8.5;5.7;;;;;;;;;;;;;
2023/07/24 09:10:11;;;;;;;8.6;5.8;;;;;;;;;;;;;
2023/07/24 09:12:38;;;;;;;8;5.4;;;;;;;;;;;;;
2023/07/24 09:15:03;;;;;;;7.7;5.1;;;;;;;;;;;;;
2023/07/24 09:17:28;;;;;;;7.5;5.6;;;;;;;;;;;;;
2023/07/24 09:19:53;;;;;;;9.7;6;;;;;;;;;;;;;
2023/07/24 09:22:20;;;;;;;8.4;5;;;;;;;;;;;;;
2023/07/24 09:24:46;;;;;;;7.8;5.2;;;;;;;;;;;;;
2023/07/24 09:27:29;;;;;;;7.3;4.9;;;;;;;;;;;;;
2023/07/24 09:29:45;;;;;;;7.5;5.1;;;;;;;;;;;;;
2023/07/24 09:32:10;;;;;;;7.9;4.9;;;;;;;;;;;;;
2023/07/24 09:34:35;;;;;;;8;4.9;;;;;;;;;;;;;
2023/07/24 09:37:01;;;;;;;7.9;4.9;;;;;;;;;;;;;
2023/07/24 09:39:27;;;;;;;7.4;5.4;;;;;;;;;;;;;
2023/07/24 09:41:52;;;;;;;7.9;5;;;;;;;;;;;;;
2023/07/24 09:44:18;;;;;;;9.6;5.2;;;;;;;;;;;;;
2023/07/24 09:46:43;;;;;;;9.1;5.3;;;;;;;;;;;;;
2023/07/24 09:49:09;;;;;;;8.8;5.6;;;;;;;;;;;;;
2023/07/24 09:51:34;;;;;;;8.5;5.3;;;;;;;;;;;;;
2023/07/24 09:54:01;;;;;;;8.4;5.1;;;;;;;;;;;;;
2023/07/24 09:56:26;;;;;;;8.8;5.4;;;;;;;;;;;;;
2023/07/24 09:58:54;;;;;;;9.9;5.5;;;;;;;;;;;;;
2023/07/24 10:01:17;;;;;;;8.1;5.6;;;;;;;;;;;;;
2023/07/24 10:03:46;;;;;;;10.3;6.4;;;;;;;;;;;;;
2023/07/24 10:06:14;;;;;;;9.8;6.1;;;;;;;;;;;;;
2023/07/24 10:08:36;;;;;;;9.7;6.4;;;;;;;;;;;;;
2023/07/24 10:11:02;;;;;;;10.2;6.2;;;;;;;;;;;;;
2023/07/24 10:13:27;;;;;;;9.2;6.1;;;;;;;;;;;;;
2023/07/24 10:15:56;;;;;;;10;6.2;;;;;;;;;;;;;
2023/07/24 10:18:24;;;;;;;10.5;6.3;;;;;;;;;;;;;
2023/07/24 10:20:50;;;;;;;9.1;6.1;;;;;;;;;;;;;
2023/07/24 10:23:15;;;;;;;8;5.8;;;;;;;;;;;;;
2023/07/24 10:25:41;;;;;;;8.5;5.4;;;;;;;;;;;;;
2023/07/24 10:28:07;;;;;;;8;5.6;;;;;;;;;;;;;
2023/07/24 10:30:36;;;;;;;7.7;5.3;;;;;;;;;;;;;
2023/07/24 10:33:00;;;;;;;9.5;5.9;;;;;;;;;;;;;
2023/07/24 10:35:25;;;;;;;10.1;5.8;;;;;;;;;;;;;
2023/07/24 10:37:52;;;;;;;9.5;6;;;;;;;;;;;;;
2023/07/24 10:40:18;;;;;;;8;5.6;;;;;;;;;;;;;
2023/07/24 10:42:43;;;;;;;8.3;5.5;;;;;;;;;;;;;
2023/07/24 10:45:13;;;;;;;9.5;5.9;;;;;;;;;;;;;
2023/07/24 10:47:39;;;;;;;7.7;5.5;;;;;;;;;;;;;
2023/07/24 10:50:04;;;;;;;8;5.3;;;;;;;;;;;;;
2023/07/24 10:52:30;;;;;;;8.8;5.4;;;;;;;;;;;;;
2023/07/24 10:54:55;;;;;;;8.5;5;;;;;;;;;;;;;
2023/07/24 10:57:23;;;;;;;6.6;4.8;;;;;;;;;;;;;
2023/07/24 10:59:48;;;;;;;6.6;4.8;;;;;;;;;;;;;
2023/07/24 11:02:15;;;;;;;10.9;5.9;;;;;;;;;;;;;
2023/07/24 11:04:40;;;;;;;8;5.3;;;;;;;;;;;;;
2023/07/24 11:07:07;;;;;;;11.7;5.4;;;;;;;;;;;;;
2023/07/24 11:09:32;;;;;;;6.3;4.5;;;;;;;;;;;;;
2023/07/24 11:11:58;;;;;;;8;5.4;;;;;;;;;;;;;
2023/07/24 11:14:23;;;;;;;6.7;4.4;;;;;;;;;;;;;
2023/07/24 11:19:15;;;;;;;5.7;4.3;;;;;;;;;;;;;
2023/07/24 11:21:40;;;;;;;6.8;4.6;;;;;;;;;;;;;
2023/07/24 11:24:05;;;;;;;7.1;4.3;;;;;;;;;;;;;
2023/07/24 11:26:32;;;;;;;5.8;4.1;;;;;;;;;;;;;
2023/07/24 11:28:57;;;;;;;6.2;4.1;;;;;;;;;;;;;
2023/07/24 11:31:23;;;;;;;5.8;3.8;;;;;;;;;;;;;
2023/07/24 11:33:49;;;;;;;5.3;4;;;;;;;;;;;;;
2023/07/24 11:36:16;;;;;;;6.3;4.4;;;;;;;;;;;;;
2023/07/24 11:38:41;;;;;;;6.7;4.6;;;;;;;;;;;;;
2023/07/24 11:41:08;;;;;;;6.8;4.5;;;;;;;;;;;;;
2023/07/24 11:43:36;;;;;;;6;4.1;;;;;;;;;;;;;
2023/07/24 11:46:01;;;;;;;6.6;4.5;;;;;;;;;;;;;
2023/07/24 11:48:28;;;;;;;4.6;3.7;;;;;;;;;;;;;
2023/07/24 11:50:54;;;;;;;6.6;4.4;;;;;;;;;;;;;
2023/07/24 11:53:19;;;;;;;5.9;4.2;;;;;;;;;;;;;
2023/07/24 11:55:44;;;;;;;6.3;4.1;;;;;;;;;;;;;
2023/07/24 11:58:11;;;;;;;7.2;4.4;;;;;;;;;;;;;
2023/07/24 12:00:37;;;;;;;6.8;4.3;;;;;;;;;;;;;
2023/07/24 12:03:04;;;;;;;6;4.3;;;;;;;;;;;;;
2023/07/24 12:05:28;;;;;;;7;4.4;;;;;;;;;;;;;
2023/07/24 12:07:54;;;;;;;6.6;3.7;;;;;;;;;;;;;
2023/07/24 12:10:20;;;;;;;5.8;3.7;;;;;;;;;;;;;
2023/07/24 12:12:45;;;;;;;5.3;3.7;;;;;;;;;;;;;
2023/07/24 12:15:10;;;;;;;6.4;4.2;;;;;;;;;;;;;
2023/07/24 12:17:37;;;;;;;4.7;3.7;;;;;;;;;;;;;
2023/07/24 12:20:04;;;;;;;7.6;3.8;;;;;;;;;;;;;
2023/07/24 12:22:30;;;;;;;5.6;3.8;;;;;;;;;;;;;
2023/07/24 12:24:55;;;;;;;5.4;3.2;;;;;;;;;;;;;
2023/07/24 12:27:21;;;;;;;5.2;3.4;;;;;;;;;;;;;
2023/07/24 12:29:46;;;;;;;5.3;3.7;;;;;;;;;;;;;
2023/07/24 12:32:11;;;;;;;4.8;3.5;;;;;;;;;;;;;
2023/07/24 12:34:38;;;;;;;5.5;3.5;;;;;;;;;;;;;
2023/07/24 12:37:03;;;;;;;5.3;3.6;;;;;;;;;;;;;
2023/07/24 12:39:29;;;;;;;5.2;3.6;;;;;;;;;;;;;
2023/07/24 12:41:54;;;;;;;6.2;3.9;;;;;;;;;;;;;
2023/07/24 12:44:20;;;;;;;6.2;4.2;;;;;;;;;;;;;
2023/07/24 12:46:45;;;;;;;5.2;3.8;;;;;;;;;;;;;
2023/07/24 12:49:12;;;;;;;5.7;4;;;;;;;;;;;;;
2023/07/24 12:51:37;;;;;;;5.3;4;;;;;;;;;;;;;
2023/07/24 12:54:03;;;;;;;6.9;4.2;;;;;;;;;;;;;
2023/07/24 12:56:28;;;;;;;4.6;3.5;;;;;;;;;;;;;
2023/07/24 12:58:56;;;;;;;4.9;3.7;;;;;;;;;;;;;
2023/07/24 13:01:21;;;;;;;4.8;3.4;;;;;;;;;;;;;
2023/07/24 13:03:48;;;;;;;4.2;3;;;;;;;;;;;;;
2023/07/24 13:06:13;;;;;;;5.9;2.7;;;;;;;;;;;;;
2023/07/24 13:08:38;;;;;;;4.9;1.8;;;;;;;;;;;;;
2023/07/24 13:11:03;;;;;;;2.1;1.2;;;;;;;;;;;;;
2023/07/24 13:13:30;;;;;;;2.6;1.6;;;;;;;;;;;;;
2023/07/24 13:15:54;;;;;;;1.7;1.2;;;;;;;;;;;;;
2023/07/24 13:18:22;;;;;;;1.8;1.2;;;;;;;;;;;;;
2023/07/24 13:20:47;;;;;;;2.6;1.2;;;;;;;;;;;;;
2023/07/24 13:23:13;;;;;;;4.8;1.3;;;;;;;;;;;;;
2023/07/24 13:25:38;;;;;;;5.3;1.1;;;;;;;;;;;;;
2023/07/24 13:28:03;;;;;;;2.9;1.2;;;;;;;;;;;;;
2023/07/24 13:30:29;;;;;;;2;1.2;;;;;;;;;;;;;
2023/07/24 13:32:56;;;;;;;2.3;1.7;;;;;;;;;;;;;
2023/07/24 13:35:21;;;;;;;2.5;1.7;;;;;;;;;;;;;
2023/07/24 13:37:46;;;;;;;3.4;1.9;;;;;;;;;;;;;
2023/07/24 13:40:12;;;;;;;3.1;2.1;;;;;;;;;;;;;
2023/07/24 13:42:40;;;;;;;3.6;2.1;;;;;;;;;;;;;
2023/07/24 13:45:04;;;;;;;3.3;2.1;;;;;;;;;;;;;
2023/07/24 13:47:32;;;;;;;2.9;2.2;;;;;;;;;;;;;
2023/07/24 13:49:59;;;;;;;3.5;2.1;;;;;;;;;;;;;
2023/07/24 13:52:28;;;;;;;6.1;3.1;;;;;;;;;;;;;
2023/07/24 13:54:55;;;;;;;6;3.2;;;;;;;;;;;;;
2023/07/24 13:57:21;;;;;;;4.3;3.1;;;;;;;;;;;;;
2023/07/24 13:59:47;;;;;;;4.4;2.7;;;;;;;;;;;;;
2023/07/24 14:02:13;;;;;;;4.1;3;;;;;;;;;;;;;
2023/07/24 14:04:38;;;;;;;6.7;3.4;;;;;;;;;;;;;
2023/07/24 14:07:03;;;;;;;7.2;3.7;;;;;;;;;;;;;
2023/07/24 14:09:32;;;;;;;5.9;3.5;;;;;;;;;;;;;
2023/07/24 14:11:56;;;;;;;5.1;3.5;;;;;;;;;;;;;
2023/07/24 14:14:23;;;;;;;5.6;3.9;;;;;;;;;;;;;
2023/07/24 14:16:46;;;;;;;4.8;3.5;;;;;;;;;;;;;
2023/07/24 14:19:12;;;;;;;5.1;3.7;;;;;;;;;;;;;
2023/07/24 14:21:38;;;;;;;6.2;3.6;;;;;;;;;;;;;
2023/07/24 14:24:05;;;;;;;5.9;3.8;;;;;;;;;;;;;
2023/07/24 14:26:30;;;;;;;6.4;3.6;;;;;;;;;;;;;
2023/07/24 14:28:57;;;;;;;5.1;2.9;;;;;;;;;;;;;
2023/07/24 14:31:22;;;;;;;5.2;3.3;;;;;;;;;;;;;
2023/07/24 14:33:50;;;;;;;5.7;3.4;;;;;;;;;;;;;
2023/07/24 14:36:15;;;;;;;4;3;;;;;;;;;;;;;
2023/07/24 14:38:40;;;;;;;5.2;3.5;;;;;;;;;;;;;
2023/07/24 14:41:05;;;;;;;5.3;3.1;;;;;;;;;;;;;
2023/07/24 14:43:33;;;;;;;5.9;3.3;;;;;;;;;;;;;
2023/07/24 14:45:58;;;;;;;4.9;3.3;;;;;;;;;;;;;
2023/07/24 14:48:25;;;;;;;4.9;3.3;;;;;;;;;;;;;
2023/07/24 14:50:50;;;;;;;5.4;3.9;;;;;;;;;;;;;
2023/07/24 14:53:16;;;;;;;4;2.9;;;;;;;;;;;;;
2023/07/24 14:55:41;;;;;;;3.8;2.9;;;;;;;;;;;;;
2023/07/24 14:58:07;;;;;;;4.3;3.1;;;;;;;;;;;;;
2023/07/24 15:00:32;;;;;;;4.2;3;;;;;;;;;;;;;
2023/07/24 15:03:00;;;;;;;5;3.1;;;;;;;;;;;;;
2023/07/24 15:05:26;;;;;;;4.8;3.3;;;;;;;;;;;;;
2023/07/24 15:07:52;;;;;;;3.8;3.1;;;;;;;;;;;;;
2023/07/24 15:10:17;;;;;;;4;2.6;;;;;;;;;;;;;
2023/07/24 15:12:45;;;;;;;4.5;2.8;;;;;;;;;;;;;
2023/07/24 15:15:10;;;;;;;4.5;3;;;;;;;;;;;;;
2023/07/24 15:17:38;;;;;;;4.8;3.1;;;;;;;;;;;;;
2023/07/24 15:20:12;;;;;;;4;2.7;;;;;;;;;;;;;
2023/07/24 15:22:40;;;;;;;4.4;2.8;;;;;;;;;;;;;
2023/07/24 15:25:05;;;;;;;4.2;2.6;;;;;;;;;;;;;
2023/07/24 15:27:31;;;;;;;3.5;2.6;;;;;;;;;;;;;
2023/07/24 15:29:56;;;;;;;4.7;2.9;;;;;;;;;;;;;
2023/07/24 15:32:22;;;;;;;3.9;3;;;;;;;;;;;;;
2023/07/24 15:34:47;;;;;;;4.1;2.7;;;;;;;;;;;;;
2023/07/24 15:37:15;;;;;;;4;2.8;;;;;;;;;;;;;
2023/07/24 15:39:40;;;;;;;4.3;3;;;;;;;;;;;;;
2023/07/24 15:42:07;;;;;;;4.9;2.9;;;;;;;;;;;;;
2023/07/24 15:44:32;;;;;;;4.9;2.9;;;;;;;;;;;;;
2023/07/24 15:47:00;;;;;;;4.1;2.9;;;;;;;;;;;;;
2023/07/24 15:49:25;;;;;;;4.5;3.1;;;;;;;;;;;;;
2023/07/24 15:51:52;;;;;;;4.1;2.9;;;;;;;;;;;;;
2023/07/24 15:54:17;;;;;;;4.8;2.7;;;;;;;;;;;;;
2023/07/24 15:56:44;;;;;;;5.2;3.1;;;;;;;;;;;;;
2023/07/24 15:59:10;;;;;;;5.2;3.4;;;;;;;;;;;;;
2023/07/24 16:01:36;;;;;;;4.2;3.2;;;;;;;;;;;;;
2023/07/24 16:04:01;;;;;;;4.5;3;;;;;;;;;;;;;
2023/07/24 16:06:27;;;;;;;4.3;3;;;;;;;;;;;;;
2023/07/24 16:08:52;;;;;;;5.2;3.2;;;;;;;;;;;;;
2023/07/24 16:11:18;;;;;;;5;3.1;;;;;;;;;;;;;
2023/07/24 16:13:43;;;;;;;4.4;2.9;;;;;;;;;;;;;
2023/07/24 16:16:10;;;;;;;5.1;3.4;;;;;;;;;;;;;
2023/07/24 16:18:35;;;;;;;4.2;2.7;;;;;;;;;;;;;
2023/07/24 16:21:00;;;;;;;4.6;3;;;;;;;;;;;;;
2023/07/24 16:23:26;;;;;;;4.3;2.7;;;;;;;;;;;;;
2023/07/24 16:25:51;;;;;;;3.9;3.1;;;;;;;;;;;;;
2023/07/24 16:28:16;;;;;;;3.4;2.7;;;;;;;;;;;;;
2023/07/24 16:30:43;;;;;;;4.8;3.4;;;;;;;;;;;;;
2023/07/24 16:33:08;;;;;;;5.1;3.2;;;;;;;;;;;;;
2023/07/24 16:35:35;;;;;;;5.7;3.7;;;;;;;;;;;;;
2023/07/24 16:38:00;;;;;;;5.6;3.2;;;;;;;;;;;;;
2023/07/24 16:40:27;;;;;;;6.7;3.5;;;;;;;;;;;;;
2023/07/24 16:42:53;;;;;;;6.2;3.6;;;;;;;;;;;;;
2023/07/24 16:45:19;;;;;;;5.5;4;;;;;;;;;;;;;
2023/07/24 16:47:44;;;;;;;5.4;3.6;;;;;;;;;;;;;
2023/07/24 16:50:15;;;;;;;6.8;4.2;;;;;;;;;;;;;
2023/07/24 16:52:42;;;;;;;5.2;3.4;;;;;;;;;;;;;
2023/07/24 16:55:07;;;;;;;4.4;3.1;;;;;;;;;;;;;
2023/07/24 16:57:36;;;;;;;4.9;3.6;;;;;;;;;;;;;
2023/07/24 17:00:02;;;;;;;5.5;3.2;;;;;;;;;;;;;
2023/07/24 17:02:27;;;;;;;4;2.9;;;;;;;;;;;;;
2023/07/24 17:04:54;;;;;;;3.7;2.9;;;;;;;;;;;;;
2023/07/24 17:07:20;;;;;;;4.3;3.4;;;;;;;;;;;;;
2023/07/24 17:09:46;;;;;;;3.5;2.6;;;;;;;;;;;;;
2023/07/24 17:12:11;;;;;;;4.4;2.8;;;;;;;;;;;;;
2023/07/24 17:14:37;;;;;;;4.6;3.1;;;;;;;;;;;;;
2023/07/24 17:17:02;;;;;;;4.9;3;;;;;;;;;;;;;
2023/07/24 17:19:27;;;;;;;6;3.5;;;;;;;;;;;;;
2023/07/24 17:21:52;;;;;;;4;3.1;;;;;;;;;;;;;
2023/07/24 17:24:23;;;;;;;6;3.4;;;;;;;;;;;;;
2023/07/24 17:26:49;;;;;;;4.7;3.5;;;;;;;;;;;;;
2023/07/24 17:29:14;;;;;;;4.5;3.1;;;;;;;;;;;;;
2023/07/24 17:31:42;;;;;;;5.3;2.8;;;;;;;;;;;;;
2023/07/24 17:34:04;;;;;;;4.7;3;;;;;;;;;;;;;
2023/07/24 17:36:32;;;;;;;4.2;2.8;;;;;;;;;;;;;
2023/07/24 17:38:58;;;;;;;4.6;3.3;;;;;;;;;;;;;
2023/07/24 17:41:26;;;;;;;4.8;3.1;;;;;;;;;;;;;
2023/07/24 17:43:50;;;;;;;5.2;3.6;;;;;;;;;;;;;
2023/07/24 17:46:18;;;;;;;6;4;;;;;;;;;;;;;
2023/07/24 17:48:44;;;;;;;7.2;4;;;;;;;;;;;;;
2023/07/24 17:51:09;;;;;;;5.3;3.8;;;;;;;;;;;;;
2023/07/24 17:53:34;;;;;;;5.1;3.9;;;;;;;;;;;;;
2023/07/24 17:56:01;;;;;;;5.1;3.4;;;;;;;;;;;;;
2023/07/24 17:58:26;;;;;;;5.3;3.5;;;;;;;;;;;;;
2023/07/24 18:00:52;;;;;;;5.3;3.6;;;;;;;;;;;;;
2023/07/24 18:03:17;;;;;;;5.3;3.3;;;;;;;;;;;;;
2023/07/24 18:05:44;;;;;;;4.8;3.3;;;;;;;;;;;;;
2023/07/24 18:08:10;;;;;;;5;2.9;;;;;;;;;;;;;
2023/07/24 18:10:37;;;;;;;5.9;3.3;;;;;;;;;;;;;
2023/07/24 18:13:02;;;;;;;4.5;3;;;;;;;;;;;;;
2023/07/24 18:15:31;;;;;;;4.2;3;;;;;;;;;;;;;
2023/07/24 18:17:59;;;;;;;3.5;2.7;;;;;;;;;;;;;
2023/07/24 18:20:24;;;;;;;6.1;3;;;;;;;;;;;;;
2023/07/24 18:22:52;;;;;;;3.8;2.5;;;;;;;;;;;;;
2023/07/24 18:25:17;;;;;;;4;2.6;;;;;;;;;;;;;
2023/07/24 18:27:45;;;;;;;3.9;2.2;;;;;;;;;;;;;
2023/07/24 18:30:11;;;;;;;3.4;2.4;;;;;;;;;;;;;
2023/07/24 18:32:36;;;;;;;3.9;2.5;;;;;;;;;;;;;
2023/07/24 18:35:01;;;;;;;4.4;2.6;;;;;;;;;;;;;
2023/07/24 18:37:27;;;;;;;3;2.3;;;;;;;;;;;;;
2023/07/24 18:39:52;;;;;;;2.8;2.2;;;;;;;;;;;;;
2023/07/24 18:42:18;;;;;;;3;2.4;;;;;;;;;;;;;
2023/07/24 18:44:43;;;;;;;3.3;2.3;;;;;;;;;;;;;
2023/07/24 18:47:11;;;;;;;3.5;2.3;;;;;;;;;;;;;
2023/07/24 18:49:36;;;;;;;4.6;2.3;;;;;;;;;;;;;
2023/07/24 18:52:03;;;;;;;2.8;1.9;;;;;;;;;;;;;
2023/07/24 18:54:28;;;;;;;3.9;2.1;;;;;;;;;;;;;
2023/07/24 18:56:53;;;;;;;2.4;1.9;;;;;;;;;;;;;
2023/07/24 18:59:18;;;;;;;3.2;2.2;;;;;;;;;;;;;
2023/07/24 19:01:44;;;;;;;2.6;1.8;;;;;;;;;;;;;
2023/07/24 19:04:09;;;;;;;3.8;1.8;;;;;;;;;;;;;
2023/07/24 19:06:35;;;;;;;3.4;2;;;;;;;;;;;;;
2023/07/24 19:09:00;;;;;;;3.9;1.9;;;;;;;;;;;;;
2023/07/24 19:11:27;;;;;;;4.1;2.1;;;;;;;;;;;;;
2023/07/24 19:13:52;;;;;;;3.3;1.9;;;;;;;;;;;;;
2023/07/24 19:16:23;;;;;;;2.6;2;;;;;;;;;;;;;
2023/07/24 19:18:52;;;;;;;4.5;2.4;;;;;;;;;;;;;
2023/07/24 19:21:17;;;;;;;3.7;2.5;;;;;;;;;;;;;